BON102 FACT-FAOR
Flight info
| Callsign | BON102 |
|---|---|
| Flight time | N/A |
| Altitude | 35000 |
| Route | TETAN UZ2 NIBEX NIBEX1B |
| Aircraft | B77L/H-SDE1E2E3FGHIJ2J3J4J5M1RWXY/LB1D1 |
Departure
| Time | 2026-05-04 19:48 |
|---|---|
| Airport | Cape Town International Airport (FACT) |
Arrival
| Time | N/A |
|---|---|
| Airport | O.R. Tambo International Airport (FAOR) |
| Time | Latitude | Longitude | Altitude | Speed | Heading |
|---|---|---|---|---|---|
| 2026-05-04 19:13 | -33.96646 | 18.59715 | 161 ft | 0 kts | 256° |
| 2026-05-04 19:37 | -33.96641 | 18.59736 | 161 ft | 3 kts | 256° |
| 2026-05-04 19:37 | -33.96636 | 18.59758 | 161 ft | 3 kts | 256° |
| 2026-05-04 19:38 | -33.96632 | 18.59780 | 161 ft | 3 kts | 256° |
| 2026-05-04 19:38 | -33.96627 | 18.59802 | 161 ft | 3 kts | 256° |
| 2026-05-04 19:38 | -33.96622 | 18.59824 | 161 ft | 3 kts | 256° |
| 2026-05-04 19:38 | -33.96618 | 18.59846 | 161 ft | 3 kts | 256° |
| 2026-05-04 19:39 | -33.96614 | 18.59862 | 161 ft | 0 kts | 256° |
| 2026-05-04 19:41 | -33.96634 | 18.59835 | 161 ft | 11 kts | 211° |
| 2026-05-04 19:42 | -33.96736 | 18.59848 | 161 ft | 16 kts | 165° |
| 2026-05-04 19:42 | -33.96843 | 18.59883 | 161 ft | 16 kts | 165° |
| 2026-05-04 19:42 | -33.96950 | 18.59918 | 161 ft | 16 kts | 165° |
| 2026-05-04 19:42 | -33.97058 | 18.59953 | 161 ft | 16 kts | 166° |
| 2026-05-04 19:43 | -33.97167 | 18.59978 | 161 ft | 16 kts | 166° |
| 2026-05-04 19:43 | -33.97275 | 18.60011 | 161 ft | 16 kts | 165° |
| 2026-05-04 19:43 | -33.97383 | 18.60045 | 161 ft | 16 kts | 165° |
| 2026-05-04 19:43 | -33.97489 | 18.60084 | 161 ft | 16 kts | 158° |
| 2026-05-04 19:44 | -33.97590 | 18.60137 | 161 ft | 16 kts | 158° |
| 2026-05-04 19:44 | -33.97694 | 18.60184 | 161 ft | 16 kts | 161° |
| 2026-05-04 19:44 | -33.97799 | 18.60228 | 161 ft | 16 kts | 161° |
| 2026-05-04 19:44 | -33.97906 | 18.60273 | 161 ft | 16 kts | 160° |
| 2026-05-04 19:45 | -33.98009 | 18.60318 | 161 ft | 16 kts | 160° |
| 2026-05-04 19:45 | -33.98114 | 18.60363 | 161 ft | 16 kts | 160° |
| 2026-05-04 19:45 | -33.98219 | 18.60407 | 161 ft | 16 kts | 160° |
| 2026-05-04 19:45 | -33.98324 | 18.60453 | 161 ft | 16 kts | 160° |
| 2026-05-04 19:46 | -33.98428 | 18.60498 | 161 ft | 16 kts | 160° |
| 2026-05-04 19:46 | -33.98533 | 18.60543 | 161 ft | 16 kts | 160° |
| 2026-05-04 19:46 | -33.98638 | 18.60588 | 161 ft | 16 kts | 160° |
| 2026-05-04 19:46 | -33.98743 | 18.60633 | 161 ft | 16 kts | 160° |
| 2026-05-04 19:47 | -33.98797 | 18.60703 | 160 ft | 12 kts | 94° |
| 2026-05-04 19:47 | -33.98779 | 18.60807 | 160 ft | 13 kts | 68° |
| 2026-05-04 19:47 | -33.98711 | 18.60863 | 159 ft | 13 kts | 359° |
| 2026-05-04 19:47 | -33.98536 | 18.60811 | 155 ft | 56 kts | 345° |
| 2026-05-04 19:48 | -33.97930 | 18.60618 | 157 ft | 122 kts | 345° |
| 2026-05-04 19:48 | -33.96929 | 18.60294 | 205 ft | 170 kts | 344° |
| 2026-05-04 19:48 | -33.95808 | 18.59944 | 851 ft | 154 kts | 346° |
| 2026-05-04 19:48 | -33.94760 | 18.59620 | 1423 ft | 162 kts | 343° |
| 2026-05-04 19:49 | -33.93656 | 18.59255 | 1866 ft | 171 kts | 342° |
| 2026-05-04 19:49 | -33.92461 | 18.58860 | 2191 ft | 186 kts | 342° |
| 2026-05-04 19:49 | -33.91185 | 18.58437 | 2666 ft | 193 kts | 342° |
| 2026-05-04 19:49 | -33.89865 | 18.58000 | 3191 ft | 200 kts | 342° |
| 2026-05-04 19:50 | -33.88493 | 18.57545 | 3666 ft | 211 kts | 342° |
| 2026-05-04 19:50 | -33.87018 | 18.57053 | 4059 ft | 229 kts | 342° |
| 2026-05-04 19:50 | -33.85397 | 18.56520 | 4470 ft | 253 kts | 343° |
| 2026-05-04 19:50 | -33.83667 | 18.56095 | 5238 ft | 262 kts | 355° |
| 2026-05-04 19:51 | -33.81849 | 18.56522 | 6104 ft | 274 kts | 24° |
| 2026-05-04 19:51 | -33.80330 | 18.57983 | 7038 ft | 283 kts | 51° |
| 2026-05-04 19:51 | -33.79495 | 18.60101 | 7904 ft | 290 kts | 77° |
| 2026-05-04 19:51 | -33.79178 | 18.62505 | 8658 ft | 296 kts | 79° |
| 2026-05-04 19:52 | -33.78791 | 18.64963 | 9503 ft | 301 kts | 77° |
| 2026-05-04 19:52 | -33.78376 | 18.67438 | 10373 ft | 305 kts | 77° |
| 2026-05-04 19:52 | -33.77947 | 18.70009 | 10805 ft | 326 kts | 77° |
| 2026-05-04 19:52 | -33.77489 | 18.72792 | 11034 ft | 353 kts | 78° |
| 2026-05-04 19:53 | -33.77001 | 18.75792 | 11335 ft | 376 kts | 78° |
| 2026-05-04 19:53 | -33.76497 | 18.78928 | 12038 ft | 387 kts | 78° |
| 2026-05-04 19:53 | -33.75984 | 18.82134 | 12857 ft | 394 kts | 78° |
| 2026-05-04 19:53 | -33.75464 | 18.85390 | 13778 ft | 399 kts | 78° |
| 2026-05-04 19:54 | -33.74938 | 18.88676 | 14573 ft | 404 kts | 77° |
| 2026-05-04 19:54 | -33.74402 | 18.92022 | 15322 ft | 411 kts | 77° |
| 2026-05-04 19:54 | -33.73856 | 18.95414 | 16040 ft | 417 kts | 76° |
| 2026-05-04 19:54 | -33.73302 | 18.98856 | 16806 ft | 423 kts | 76° |
| 2026-05-04 19:55 | -33.72737 | 19.02354 | 17548 ft | 429 kts | 75° |
| 2026-05-04 19:55 | -33.72162 | 19.05901 | 18295 ft | 435 kts | 74° |
| 2026-05-04 19:55 | -33.71585 | 19.09468 | 18952 ft | 439 kts | 74° |
| 2026-05-04 19:55 | -33.70999 | 19.13080 | 19618 ft | 442 kts | 73° |
| 2026-05-04 19:56 | -33.70408 | 19.16732 | 20213 ft | 448 kts | 73° |
| 2026-05-04 19:56 | -33.69805 | 19.20418 | 20831 ft | 453 kts | 73° |
| 2026-05-04 19:56 | -33.69193 | 19.24153 | 21434 ft | 457 kts | 72° |
| 2026-05-04 19:56 | -33.68579 | 19.27914 | 22049 ft | 461 kts | 72° |
| 2026-05-04 19:57 | -33.67959 | 19.31709 | 22642 ft | 466 kts | 72° |
| 2026-05-04 19:57 | -33.67326 | 19.35553 | 23244 ft | 470 kts | 70° |
| 2026-05-04 19:57 | -33.66471 | 19.39264 | 23780 ft | 466 kts | 61° |
| 2026-05-04 19:57 | -33.65158 | 19.42796 | 24284 ft | 460 kts | 53° |
| 2026-05-04 19:58 | -33.63524 | 19.46065 | 24841 ft | 454 kts | 45° |
| 2026-05-04 19:58 | -33.61600 | 19.49050 | 25363 ft | 452 kts | 42° |
| 2026-05-04 19:58 | -33.59621 | 19.52002 | 25827 ft | 456 kts | 42° |
| 2026-05-04 19:58 | -33.57627 | 19.54977 | 26301 ft | 460 kts | 42° |
| 2026-05-04 19:59 | -33.55627 | 19.57983 | 26843 ft | 463 kts | 42° |
| 2026-05-04 19:59 | -33.53613 | 19.61025 | 27377 ft | 468 kts | 43° |
| 2026-05-04 19:59 | -33.51587 | 19.64099 | 27911 ft | 472 kts | 43° |
| 2026-05-04 19:59 | -33.49549 | 19.67194 | 28423 ft | 475 kts | 43° |
| 2026-05-04 20:00 | -33.47499 | 19.70312 | 28923 ft | 478 kts | 43° |
| 2026-05-04 20:00 | -33.45433 | 19.73455 | 29392 ft | 482 kts | 43° |
| 2026-05-04 20:00 | -33.43353 | 19.76619 | 29810 ft | 485 kts | 43° |
| 2026-05-04 20:00 | -33.41258 | 19.79801 | 30261 ft | 487 kts | 42° |
| 2026-05-04 20:01 | -33.39165 | 19.82980 | 30743 ft | 486 kts | 42° |
| 2026-05-04 20:01 | -33.37082 | 19.86142 | 31251 ft | 484 kts | 42° |
| 2026-05-04 20:01 | -33.34996 | 19.89301 | 31720 ft | 484 kts | 42° |
| 2026-05-04 20:01 | -33.32911 | 19.92454 | 32183 ft | 483 kts | 42° |
| 2026-05-04 20:02 | -33.30823 | 19.95608 | 32601 ft | 483 kts | 42° |
| 2026-05-04 20:02 | -33.28710 | 19.98716 | 33032 ft | 479 kts | 39° |
| 2026-05-04 20:02 | -33.26514 | 20.01700 | 33418 ft | 478 kts | 39° |
| 2026-05-04 20:02 | -33.24297 | 20.04644 | 33811 ft | 477 kts | 38° |
| 2026-05-04 20:03 | -33.22067 | 20.07577 | 34174 ft | 476 kts | 38° |
| 2026-05-04 20:03 | -33.19834 | 20.10507 | 34455 ft | 477 kts | 38° |
| 2026-05-04 20:03 | -33.17604 | 20.13441 | 34746 ft | 478 kts | 38° |
| 2026-05-04 20:03 | -33.15366 | 20.16390 | 34946 ft | 481 kts | 38° |
| 2026-05-04 20:04 | -33.13112 | 20.19363 | 34984 ft | 485 kts | 38° |
| 2026-05-04 20:04 | -33.08613 | 20.25323 | 35024 ft | 481 kts | 38° |
| 2026-05-04 20:05 | -33.04163 | 20.31223 | 35035 ft | 477 kts | 38° |
| 2026-05-04 20:05 | -32.99708 | 20.37102 | 35022 ft | 478 kts | 37° |
| 2026-05-04 20:06 | -32.95281 | 20.42933 | 35025 ft | 478 kts | 37° |
| 2026-05-04 20:06 | -32.90827 | 20.48792 | 35029 ft | 477 kts | 37° |
| 2026-05-04 20:07 | -32.86333 | 20.54692 | 35035 ft | 478 kts | 37° |
| 2026-05-04 20:07 | -32.81886 | 20.60523 | 35022 ft | 480 kts | 37° |
| 2026-05-04 20:08 | -32.77397 | 20.66400 | 35036 ft | 481 kts | 37° |
| 2026-05-04 20:08 | -32.72899 | 20.72281 | 35034 ft | 480 kts | 37° |
| 2026-05-04 20:09 | -32.68404 | 20.78149 | 35024 ft | 480 kts | 37° |
| 2026-05-04 20:09 | -32.63915 | 20.84000 | 35024 ft | 479 kts | 37° |
| 2026-05-04 20:10 | -32.59424 | 20.89839 | 35022 ft | 479 kts | 36° |
| 2026-05-04 20:10 | -32.54935 | 20.95669 | 35023 ft | 479 kts | 36° |
| 2026-05-04 20:11 | -32.50446 | 21.01491 | 35014 ft | 478 kts | 36° |
| 2026-05-04 20:11 | -32.45965 | 21.07292 | 35012 ft | 477 kts | 36° |
| 2026-05-04 20:12 | -32.41487 | 21.13080 | 35018 ft | 476 kts | 36° |
| 2026-05-04 20:12 | -32.37012 | 21.18857 | 35021 ft | 475 kts | 36° |
| 2026-05-04 20:13 | -32.32548 | 21.24608 | 35012 ft | 475 kts | 36° |
| 2026-05-04 20:13 | -32.28082 | 21.30353 | 35010 ft | 474 kts | 36° |
| 2026-05-04 20:14 | -32.23625 | 21.36078 | 35004 ft | 473 kts | 36° |
| 2026-05-04 20:14 | -32.19175 | 21.41784 | 35011 ft | 472 kts | 36° |
| 2026-05-04 20:15 | -32.14729 | 21.47476 | 35007 ft | 471 kts | 36° |
| 2026-05-04 20:15 | -32.10285 | 21.53157 | 35002 ft | 471 kts | 36° |
| 2026-05-04 20:16 | -32.05848 | 21.58822 | 35002 ft | 471 kts | 36° |
| 2026-05-04 20:16 | -32.01401 | 21.64489 | 35005 ft | 471 kts | 35° |
| 2026-05-04 20:17 | -31.97702 | 21.69196 | 35009 ft | 471 kts | 35° |
| 2026-05-04 20:17 | -31.93250 | 21.74854 | 35017 ft | 471 kts | 35° |
| 2026-05-04 20:18 | -31.88788 | 21.80515 | 35011 ft | 472 kts | 35° |
| 2026-05-04 20:18 | -31.84321 | 21.86175 | 35000 ft | 472 kts | 35° |
| 2026-05-04 20:19 | -31.79853 | 21.91829 | 35005 ft | 472 kts | 35° |
| 2026-05-04 20:19 | -31.75382 | 21.97478 | 35004 ft | 472 kts | 35° |
| 2026-05-04 20:20 | -31.70909 | 22.03119 | 35017 ft | 472 kts | 35° |
| 2026-05-04 20:20 | -31.66428 | 22.08761 | 35013 ft | 473 kts | 35° |
| 2026-05-04 20:21 | -31.61929 | 22.14417 | 35010 ft | 474 kts | 35° |
| 2026-05-04 20:21 | -31.55176 | 22.22893 | 35011 ft | 475 kts | 35° |
| 2026-05-04 20:22 | -31.50665 | 22.28545 | 35012 ft | 475 kts | 34° |
| 2026-05-04 20:22 | -31.46148 | 22.34196 | 35010 ft | 475 kts | 34° |
| 2026-05-04 20:23 | -31.41633 | 22.39836 | 35004 ft | 475 kts | 34° |
| 2026-05-04 20:23 | -31.37139 | 22.45439 | 35006 ft | 475 kts | 34° |
| 2026-05-04 20:24 | -31.32612 | 22.51076 | 35022 ft | 475 kts | 34° |
| 2026-05-04 20:24 | -31.28076 | 22.56714 | 35007 ft | 476 kts | 34° |
| 2026-05-04 20:25 | -31.23536 | 22.62351 | 35004 ft | 476 kts | 34° |
| 2026-05-04 20:25 | -31.18992 | 22.67985 | 34996 ft | 477 kts | 34° |
| 2026-05-04 20:26 | -31.14439 | 22.73621 | 34987 ft | 477 kts | 34° |
| 2026-05-04 20:26 | -31.09884 | 22.79252 | 34995 ft | 477 kts | 34° |
| 2026-05-04 20:27 | -31.05329 | 22.84876 | 34992 ft | 476 kts | 34° |
| 2026-05-04 20:27 | -31.00772 | 22.90481 | 34987 ft | 476 kts | 34° |
| 2026-05-04 20:28 | -30.96203 | 22.96076 | 34983 ft | 476 kts | 34° |
| 2026-05-04 20:28 | -30.91647 | 23.01649 | 34982 ft | 474 kts | 34° |
| 2026-05-04 20:29 | -30.87097 | 23.07210 | 34972 ft | 474 kts | 34° |
| 2026-05-04 20:29 | -30.82555 | 23.12757 | 34974 ft | 473 kts | 34° |
| 2026-05-04 20:30 | -30.78016 | 23.18289 | 34966 ft | 472 kts | 34° |
| 2026-05-04 20:30 | -30.73489 | 23.23796 | 34966 ft | 471 kts | 34° |
| 2026-05-04 20:31 | -30.68964 | 23.29295 | 34975 ft | 470 kts | 34° |
| 2026-05-04 20:31 | -30.64437 | 23.34788 | 34963 ft | 470 kts | 34° |
| 2026-05-04 20:32 | -30.59915 | 23.40268 | 34967 ft | 470 kts | 34° |
| 2026-05-04 20:32 | -30.55388 | 23.45743 | 34963 ft | 470 kts | 34° |
| 2026-05-04 20:33 | -30.50883 | 23.51187 | 34957 ft | 470 kts | 34° |
| 2026-05-04 20:33 | -30.46358 | 23.56647 | 34962 ft | 470 kts | 34° |
| 2026-05-04 20:34 | -30.41822 | 23.62112 | 34965 ft | 470 kts | 34° |
| 2026-05-04 20:34 | -30.37293 | 23.67561 | 34966 ft | 469 kts | 34° |
| 2026-05-04 20:35 | -30.32764 | 23.73002 | 34975 ft | 469 kts | 34° |
| 2026-05-04 20:35 | -30.28231 | 23.78440 | 34966 ft | 469 kts | 34° |
| 2026-05-04 20:36 | -30.23696 | 23.83872 | 34964 ft | 469 kts | 34° |
| 2026-05-04 20:36 | -30.19161 | 23.89298 | 34967 ft | 469 kts | 34° |
| 2026-05-04 20:37 | -30.14625 | 23.94717 | 34973 ft | 469 kts | 34° |
| 2026-05-04 20:37 | -30.10085 | 24.00133 | 34976 ft | 469 kts | 34° |
| 2026-05-04 20:38 | -30.05545 | 24.05540 | 34978 ft | 469 kts | 34° |
| 2026-05-04 20:38 | -30.01004 | 24.10942 | 34979 ft | 469 kts | 34° |
| 2026-05-04 20:39 | -29.96455 | 24.16345 | 34979 ft | 470 kts | 34° |
| 2026-05-04 20:39 | -29.91895 | 24.21754 | 34984 ft | 470 kts | 34° |
| 2026-05-04 20:40 | -29.87338 | 24.27152 | 34980 ft | 470 kts | 34° |
| 2026-05-04 20:40 | -29.82770 | 24.32556 | 34983 ft | 471 kts | 34° |
| 2026-05-04 20:41 | -29.78223 | 24.37926 | 34978 ft | 472 kts | 34° |
| 2026-05-04 20:41 | -29.73625 | 24.43347 | 34978 ft | 474 kts | 35° |
| 2026-05-04 20:42 | -29.68994 | 24.48799 | 34987 ft | 478 kts | 35° |
| 2026-05-04 20:42 | -29.64329 | 24.54284 | 34981 ft | 482 kts | 35° |
| 2026-05-04 20:43 | -29.59625 | 24.59810 | 34996 ft | 486 kts | 35° |
| 2026-05-04 20:43 | -29.54876 | 24.65381 | 34993 ft | 490 kts | 35° |
| 2026-05-04 20:44 | -29.50088 | 24.70990 | 34986 ft | 493 kts | 35° |
| 2026-05-04 20:44 | -29.45276 | 24.76622 | 34988 ft | 495 kts | 35° |
| 2026-05-04 20:45 | -29.40450 | 24.82263 | 34989 ft | 496 kts | 35° |
| 2026-05-04 20:45 | -29.35614 | 24.87905 | 34977 ft | 496 kts | 34° |
| 2026-05-04 20:46 | -29.30783 | 24.93533 | 34978 ft | 494 kts | 34° |
| 2026-05-04 20:46 | -29.25966 | 24.99137 | 34975 ft | 493 kts | 34° |
| 2026-05-04 20:47 | -29.21155 | 25.04723 | 34961 ft | 492 kts | 33° |
| 2026-05-04 20:47 | -29.16347 | 25.10297 | 34958 ft | 492 kts | 33° |
| 2026-05-04 20:48 | -29.11542 | 25.15861 | 34965 ft | 492 kts | 33° |
| 2026-05-04 20:48 | -29.06726 | 25.21427 | 34963 ft | 492 kts | 33° |
| 2026-05-04 20:49 | -29.01902 | 25.26997 | 34974 ft | 493 kts | 33° |
| 2026-05-04 20:49 | -28.97068 | 25.32570 | 34970 ft | 494 kts | 33° |
| 2026-05-04 20:50 | -28.92227 | 25.38146 | 34966 ft | 495 kts | 33° |
| 2026-05-04 20:50 | -28.87373 | 25.43727 | 34966 ft | 496 kts | 33° |
| 2026-05-04 20:51 | -28.82505 | 25.49318 | 34959 ft | 496 kts | 33° |
| 2026-05-04 20:51 | -28.77677 | 25.54854 | 34965 ft | 496 kts | 33° |
| 2026-05-04 20:52 | -28.72804 | 25.60435 | 34973 ft | 496 kts | 33° |
| 2026-05-04 20:52 | -28.67928 | 25.66009 | 34979 ft | 497 kts | 33° |
| 2026-05-04 20:53 | -28.63044 | 25.71585 | 34983 ft | 497 kts | 33° |
| 2026-05-04 20:53 | -28.58161 | 25.77154 | 34980 ft | 497 kts | 33° |
| 2026-05-04 20:54 | -28.53271 | 25.82723 | 34993 ft | 497 kts | 33° |
| 2026-05-04 20:54 | -28.48377 | 25.88288 | 34986 ft | 497 kts | 33° |
| 2026-05-04 20:55 | -28.43482 | 25.93848 | 34991 ft | 497 kts | 33° |
| 2026-05-04 20:55 | -28.38586 | 25.99402 | 35000 ft | 497 kts | 33° |
| 2026-05-04 20:56 | -28.33689 | 26.04946 | 34999 ft | 497 kts | 33° |
| 2026-05-04 20:56 | -28.28777 | 26.10494 | 35000 ft | 497 kts | 33° |
| 2026-05-04 20:57 | -28.23872 | 26.16029 | 35020 ft | 497 kts | 33° |
| 2026-05-04 20:57 | -28.18969 | 26.21558 | 35006 ft | 497 kts | 33° |
| 2026-05-04 20:58 | -28.14063 | 26.27081 | 35014 ft | 497 kts | 33° |
| 2026-05-04 20:58 | -28.09153 | 26.32602 | 35012 ft | 497 kts | 33° |
| 2026-05-04 20:59 | -28.04244 | 26.38116 | 35016 ft | 497 kts | 33° |
| 2026-05-04 20:59 | -27.99360 | 26.43593 | 35016 ft | 497 kts | 33° |
| 2026-05-04 21:00 | -27.94442 | 26.49095 | 35021 ft | 497 kts | 34° |
| 2026-05-04 21:00 | -27.89521 | 26.54596 | 35017 ft | 498 kts | 34° |
| 2026-05-04 21:01 | -27.84601 | 26.60090 | 35031 ft | 498 kts | 34° |
| 2026-05-04 21:01 | -27.79671 | 26.65589 | 35028 ft | 498 kts | 34° |
| 2026-05-04 21:02 | -27.74732 | 26.71090 | 35048 ft | 499 kts | 34° |
| 2026-05-04 21:02 | -27.69791 | 26.76587 | 35045 ft | 499 kts | 34° |
| 2026-05-04 21:03 | -27.64842 | 26.82084 | 35043 ft | 500 kts | 34° |
| 2026-05-04 21:03 | -27.59882 | 26.87587 | 35056 ft | 500 kts | 34° |
| 2026-05-04 21:04 | -27.54943 | 26.93065 | 35044 ft | 491 kts | 34° |
| 2026-05-04 21:04 | -27.52543 | 26.95737 | 35043 ft | 478 kts | 34° |
| 2026-05-04 21:04 | -27.50206 | 26.98336 | 34901 ft | 468 kts | 34° |
| 2026-05-04 21:05 | -27.47897 | 27.00890 | 34504 ft | 463 kts | 34° |
| 2026-05-04 21:05 | -27.45594 | 27.03425 | 33952 ft | 463 kts | 34° |
| 2026-05-04 21:05 | -27.44065 | 27.05105 | 33576 ft | 462 kts | 34° |
| 2026-05-04 21:05 | -27.41037 | 27.08438 | 33049 ft | 456 kts | 34° |
| 2026-05-04 21:06 | -27.39519 | 27.10113 | 32836 ft | 451 kts | 34° |
| 2026-05-04 21:06 | -27.37291 | 27.12572 | 32485 ft | 446 kts | 34° |
| 2026-05-04 21:06 | -27.35088 | 27.15000 | 32091 ft | 441 kts | 34° |
| 2026-05-04 21:06 | -27.32903 | 27.17404 | 31685 ft | 437 kts | 34° |
| 2026-05-04 21:07 | -27.30742 | 27.19780 | 31304 ft | 433 kts | 35° |
| 2026-05-04 21:07 | -27.28599 | 27.22135 | 30927 ft | 429 kts | 35° |
| 2026-05-04 21:07 | -27.26476 | 27.24467 | 30570 ft | 424 kts | 35° |
| 2026-05-04 21:07 | -27.24377 | 27.26774 | 30201 ft | 420 kts | 35° |
| 2026-05-04 21:08 | -27.22293 | 27.29061 | 29800 ft | 416 kts | 35° |
| 2026-05-04 21:08 | -27.20219 | 27.31299 | 29321 ft | 411 kts | 32° |
| 2026-05-04 21:08 | -27.18078 | 27.33385 | 28838 ft | 406 kts | 31° |
| 2026-05-04 21:08 | -27.15928 | 27.35418 | 28400 ft | 402 kts | 31° |
| 2026-05-04 21:09 | -27.13822 | 27.37393 | 27980 ft | 399 kts | 31° |
| 2026-05-04 21:09 | -27.11696 | 27.39388 | 27552 ft | 396 kts | 31° |
| 2026-05-04 21:09 | -27.09589 | 27.41369 | 27129 ft | 394 kts | 31° |
| 2026-05-04 21:09 | -27.07498 | 27.43340 | 26701 ft | 391 kts | 31° |
| 2026-05-04 21:10 | -27.05423 | 27.45299 | 26308 ft | 389 kts | 31° |
| 2026-05-04 21:10 | -27.03365 | 27.47244 | 25919 ft | 386 kts | 31° |
| 2026-05-04 21:10 | -27.01319 | 27.49178 | 25538 ft | 384 kts | 32° |
| 2026-05-04 21:10 | -26.99281 | 27.51103 | 25174 ft | 381 kts | 32° |
| 2026-05-04 21:11 | -26.97259 | 27.53013 | 24802 ft | 379 kts | 32° |
| 2026-05-04 21:11 | -26.95248 | 27.54911 | 24436 ft | 376 kts | 32° |
| 2026-05-04 21:11 | -26.93253 | 27.56793 | 24088 ft | 374 kts | 32° |
| 2026-05-04 21:11 | -26.91268 | 27.58665 | 23733 ft | 372 kts | 32° |
| 2026-05-04 21:12 | -26.89292 | 27.60527 | 23314 ft | 370 kts | 32° |
| 2026-05-04 21:12 | -26.87327 | 27.62379 | 22903 ft | 368 kts | 32° |
| 2026-05-04 21:12 | -26.85377 | 27.64215 | 22476 ft | 366 kts | 32° |
| 2026-05-04 21:12 | -26.83435 | 27.66043 | 22061 ft | 364 kts | 32° |
| 2026-05-04 21:13 | -26.81494 | 27.67848 | 21657 ft | 361 kts | 31° |
| 2026-05-04 21:13 | -26.79518 | 27.69554 | 21252 ft | 357 kts | 29° |
| 2026-05-04 21:13 | -26.77534 | 27.71212 | 20842 ft | 355 kts | 29° |
| 2026-05-04 21:13 | -26.75548 | 27.72862 | 20432 ft | 354 kts | 29° |
| 2026-05-04 21:14 | -26.73580 | 27.74505 | 20021 ft | 353 kts | 30° |
| 2026-05-04 21:14 | -26.71618 | 27.76150 | 19635 ft | 351 kts | 30° |
| 2026-05-04 21:14 | -26.69669 | 27.77790 | 19249 ft | 350 kts | 30° |
| 2026-05-04 21:14 | -26.67729 | 27.79426 | 18866 ft | 348 kts | 30° |
| 2026-05-04 21:15 | -26.65803 | 27.81051 | 18488 ft | 347 kts | 30° |
| 2026-05-04 21:15 | -26.63887 | 27.82669 | 18172 ft | 341 kts | 30° |
| 2026-05-04 21:15 | -26.62039 | 27.84235 | 18079 ft | 323 kts | 30° |
| 2026-05-04 21:15 | -26.60317 | 27.85697 | 17851 ft | 299 kts | 29° |
| 2026-05-04 21:16 | -26.58712 | 27.87054 | 17494 ft | 282 kts | 28° |
| 2026-05-04 21:16 | -26.57194 | 27.88331 | 16966 ft | 274 kts | 28° |
| 2026-05-04 21:16 | -26.55666 | 27.89610 | 16514 ft | 274 kts | 28° |
| 2026-05-04 21:16 | -26.54291 | 27.91077 | 16074 ft | 282 kts | 52° |
| 2026-05-04 21:17 | -26.53661 | 27.93187 | 15552 ft | 297 kts | 85° |
| 2026-05-04 21:17 | -26.53962 | 27.95472 | 15156 ft | 297 kts | 101° |
| 2026-05-04 21:17 | -26.54463 | 27.97710 | 14829 ft | 297 kts | 101° |
| 2026-05-04 21:17 | -26.54956 | 27.99955 | 14507 ft | 298 kts | 101° |
| 2026-05-04 21:18 | -26.55435 | 28.02195 | 14242 ft | 296 kts | 101° |
| 2026-05-04 21:18 | -26.55900 | 28.04448 | 13835 ft | 297 kts | 97° |
| 2026-05-04 21:18 | -26.55848 | 28.06693 | 13465 ft | 285 kts | 68° |
| 2026-05-04 21:18 | -26.55011 | 28.08633 | 13163 ft | 272 kts | 46° |
| 2026-05-04 21:19 | -26.53725 | 28.10129 | 12848 ft | 265 kts | 36° |
| 2026-05-04 21:19 | -26.52807 | 28.11065 | 12645 ft | 264 kts | 35° |
| 2026-05-04 21:19 | -26.51012 | 28.12892 | 12227 ft | 264 kts | 36° |
| 2026-05-04 21:19 | -26.49648 | 28.14252 | 11921 ft | 258 kts | 30° |
| 2026-05-04 21:20 | -26.48078 | 28.15048 | 11611 ft | 242 kts | 8° |
| 2026-05-04 21:20 | -26.46456 | 28.15535 | 11333 ft | 241 kts | 9° |
| 2026-05-04 21:20 | -26.44833 | 28.16028 | 11047 ft | 242 kts | 9° |
| 2026-05-04 21:20 | -26.43212 | 28.16524 | 10775 ft | 242 kts | 9° |
| 2026-05-04 21:21 | -26.41631 | 28.17013 | 10494 ft | 227 kts | 9° |
| 2026-05-04 21:21 | -26.40190 | 28.17465 | 10211 ft | 201 kts | 8° |
| 2026-05-04 21:21 | -26.38911 | 28.17861 | 9939 ft | 183 kts | 7° |
| 2026-05-04 21:21 | -26.37707 | 28.18218 | 9723 ft | 178 kts | 7° |
| 2026-05-04 21:22 | -26.36503 | 28.18581 | 9502 ft | 178 kts | 8° |
| 2026-05-04 21:22 | -26.35335 | 28.18944 | 9244 ft | 170 kts | 8° |
| 2026-05-04 21:22 | -26.34233 | 28.19287 | 9044 ft | 164 kts | 8° |
| 2026-05-04 21:22 | -26.33132 | 28.19627 | 8841 ft | 166 kts | 8° |
| 2026-05-04 21:23 | -26.31999 | 28.19979 | 8631 ft | 167 kts | 8° |
| 2026-05-04 21:23 | -26.30906 | 28.20320 | 8405 ft | 164 kts | 9° |
| 2026-05-04 21:23 | -26.29821 | 28.20659 | 8181 ft | 162 kts | 8° |
| 2026-05-04 21:23 | -26.28732 | 28.20997 | 8002 ft | 163 kts | 9° |
| 2026-05-04 21:24 | -26.27633 | 28.21339 | 7775 ft | 164 kts | 9° |
| 2026-05-04 21:24 | -26.26551 | 28.21677 | 7580 ft | 160 kts | 9° |
| 2026-05-04 21:24 | -26.25486 | 28.22008 | 7383 ft | 158 kts | 9° |
| 2026-05-04 21:24 | -26.24416 | 28.22339 | 7185 ft | 161 kts | 10° |
| 2026-05-04 21:25 | -26.23347 | 28.22672 | 6997 ft | 157 kts | 10° |
| 2026-05-04 21:25 | -26.22291 | 28.23002 | 6785 ft | 158 kts | 10° |